createdAt,value
2023-03-12T00:01:41.724Z,100681.63
2023-03-12T00:04:08.416Z,100684.94
2023-03-12T00:06:35.085Z,100683.94
2023-03-12T00:09:02.046Z,100681.13
2023-03-12T00:11:29.047Z,100685.41
2023-03-12T00:13:57.631Z,100686.03
2023-03-12T00:16:24.916Z,100682.59
2023-03-12T00:18:53.574Z,100690.53
2023-03-12T00:21:21.358Z,100689.53
2023-03-12T00:23:51.500Z,100685.22
2023-03-12T00:26:18.954Z,100687.03
2023-03-12T00:28:45.859Z,100682.09
2023-03-12T00:31:22.511Z,100686.41
2023-03-12T00:33:50.210Z,100689.06
2023-03-12T00:36:21.684Z,100685.56
2023-03-12T00:38:48.264Z,100690.03
2023-03-12T00:41:14.797Z,100681.47
2023-03-12T00:43:41.365Z,100684.09
2023-03-12T00:46:07.922Z,100680.63
2023-03-12T00:48:34.503Z,100678.19
2023-03-12T00:51:01.037Z,100676.50
2023-03-12T00:53:27.593Z,100678.34
2023-03-12T00:55:54.224Z,100675.69
2023-03-12T00:58:20.764Z,100676.66
2023-03-12T01:00:47.356Z,100681.00
2023-03-12T01:03:14.063Z,100689.91
2023-03-12T01:05:40.914Z,100691.56
2023-03-12T01:08:08.746Z,100692.53
2023-03-12T01:10:36.225Z,100691.75
2023-03-12T01:13:02.884Z,100688.09
2023-03-12T01:15:29.820Z,100688.09
2023-03-12T01:17:56.392Z,100692.38
2023-03-12T01:20:23.306Z,100692.38
2023-03-12T01:22:50.246Z,100694.84
2023-03-12T01:25:16.923Z,100693.84
2023-03-12T01:27:43.474Z,100692.88
2023-03-12T01:30:10.968Z,100696.31
2023-03-12T01:32:37.650Z,100695.31
2023-03-12T01:35:05.141Z,100687.38
2023-03-12T01:37:32.673Z,100704.09
2023-03-12T01:39:59.556Z,100687.38
2023-03-12T01:42:26.138Z,100699.81
2023-03-12T01:44:59.259Z,100703.25
2023-03-12T01:47:26.870Z,100698.16
2023-03-12T01:49:54.642Z,100700.81
2023-03-12T01:52:41.448Z,100709.72
2023-03-12T01:55:14.028Z,100710.72
2023-03-12T01:57:52.758Z,100717.03
2023-03-12T02:00:25.136Z,100712.75
2023-03-12T02:02:52.570Z,100718.84
2023-03-12T02:05:32.686Z,100711.28
2023-03-12T02:07:59.358Z,100716.34
2023-03-12T02:10:26.783Z,100714.72
2023-03-12T02:12:53.790Z,100717.53
2023-03-12T02:15:20.609Z,100714.88
2023-03-12T02:17:47.142Z,100717.72
2023-03-12T02:20:30.367Z,100716.91
2023-03-12T02:23:07.135Z,100716.06
2023-03-12T02:25:46.901Z,100723.19
2023-03-12T02:28:16.905Z,100722.34
2023-03-12T02:30:46.745Z,100738.22
2023-03-12T02:33:15.256Z,100735.59
2023-03-12T02:35:42.387Z,100739.06
2023-03-12T02:38:45.389Z,100746.84
2023-03-12T02:41:21.873Z,100750.28
2023-03-12T02:44:04.216Z,100750.13
2023-03-12T02:46:35.570Z,100757.88
2023-03-12T02:49:02.767Z,100759.69
2023-03-12T02:51:29.386Z,100765.66
2023-03-12T02:53:56.009Z,100761.34
2023-03-12T02:56:24.759Z,100769.94
2023-03-12T02:58:51.409Z,100777.03
2023-03-12T03:01:18.401Z,100776.88
2023-03-12T03:03:45.505Z,100773.41
2023-03-12T03:06:12.381Z,100775.22
2023-03-12T03:08:39.234Z,100767.47
2023-03-12T03:11:06.723Z,100770.09
2023-03-12T03:13:33.982Z,100784.19
2023-03-12T03:16:02.004Z,100783.34
2023-03-12T03:18:29.442Z,100792.28
2023-03-12T03:21:01.990Z,100798.38
2023-03-12T03:23:28.724Z,100786.31
2023-03-12T03:25:55.693Z,100788.00
2023-03-12T03:28:24.007Z,100794.25
2023-03-12T03:30:58.264Z,100793.44
2023-03-12T03:33:25.031Z,100799.75
2023-03-12T03:35:51.755Z,100790.13
2023-03-12T03:38:18.327Z,100800.06
2023-03-12T03:40:44.966Z,100801.72
2023-03-12T03:43:11.559Z,100794.13
2023-03-12T03:45:38.343Z,100802.88
2023-03-12T03:48:05.570Z,100802.06
2023-03-12T03:50:32.627Z,100809.00
2023-03-12T03:52:59.236Z,100810.66
2023-03-12T03:55:25.834Z,100822.03
2023-03-12T03:57:52.406Z,100814.94
2023-03-12T04:00:19.400Z,100812.28
2023-03-12T04:02:45.998Z,100820.06
2023-03-12T04:05:12.719Z,100817.25
2023-03-12T04:07:39.320Z,100821.53
2023-03-12T04:10:06.444Z,100818.91
2023-03-12T04:12:33.047Z,100818.91
2023-03-12T04:14:59.636Z,100821.53
2023-03-12T04:17:26.195Z,100825.19
2023-03-12T04:19:52.881Z,100825.03
2023-03-12T04:22:19.440Z,100824.34
2023-03-12T04:24:46.079Z,100825.19
2023-03-12T04:27:12.829Z,100823.56
2023-03-12T04:29:40.787Z,100825.34
2023-03-12T04:32:07.571Z,100825.53
2023-03-12T04:34:34.475Z,100826.53
2023-03-12T04:37:02.543Z,100827.34
2023-03-12T04:39:29.148Z,100831.16
2023-03-12T04:41:55.750Z,100840.75
2023-03-12T04:44:22.518Z,100837.44
2023-03-12T04:46:49.338Z,100841.09
2023-03-12T04:49:15.964Z,100843.72
2023-03-12T04:51:42.731Z,100847.38
2023-03-12T04:54:09.333Z,100841.25
2023-03-12T04:56:35.925Z,100844.06
2023-03-12T04:59:02.624Z,100844.22
2023-03-12T05:01:31.785Z,100848.56
2023-03-12T05:03:58.653Z,100851.19
2023-03-12T05:06:25.734Z,100847.72
2023-03-12T05:08:53.067Z,100855.47
2023-03-12T05:11:20.044Z,100856.13
2023-03-12T05:13:49.163Z,100858.59
2023-03-12T05:16:16.224Z,100871.66
2023-03-12T05:18:43.698Z,100869.66
2023-03-12T05:21:15.728Z,100872.13
2023-03-12T05:23:43.179Z,100879.09
2023-03-12T05:26:21.650Z,100870.16
2023-03-12T05:28:48.550Z,100878.09
2023-03-12T05:31:16.079Z,100881.56
2023-03-12T05:33:43.230Z,100875.47
2023-03-12T05:36:10.691Z,100881.75
2023-03-12T05:38:37.910Z,100877.28
2023-03-12T05:41:05.002Z,100879.91
2023-03-12T05:43:31.803Z,100876.63
2023-03-12T05:46:00.670Z,100878.44
2023-03-12T05:48:27.457Z,100877.78
2023-03-12T05:50:54.076Z,100883.09
2023-03-12T05:53:20.675Z,100877.97
2023-03-12T05:55:47.309Z,100889.34
2023-03-12T05:58:13.940Z,100877.97
2023-03-12T06:00:41.787Z,100882.41
2023-03-12T06:03:08.845Z,100887.69
2023-03-12T06:05:36.288Z,100889.53
2023-03-12T06:08:03.796Z,100888.69
2023-03-12T06:10:30.414Z,100888.03
2023-03-12T06:12:57.466Z,100879.28
2023-03-12T06:15:24.190Z,100883.75
2023-03-12T06:17:50.777Z,100884.75
2023-03-12T06:20:17.577Z,100886.38
2023-03-12T06:22:44.161Z,100885.38
2023-03-12T06:25:10.737Z,100885.56
2023-03-12T06:27:37.413Z,100888.88
2023-03-12T06:30:04.991Z,100888.69
2023-03-12T06:32:31.684Z,100884.06
2023-03-12T06:35:00.716Z,100886.69
2023-03-12T06:37:27.856Z,100891.66
2023-03-12T06:39:54.647Z,100894.31
2023-03-12T06:42:22.620Z,100902.91
2023-03-12T06:44:50.406Z,100897.63
2023-03-12T06:47:17.772Z,100899.28
2023-03-12T06:49:44.664Z,100905.56
2023-03-12T06:52:11.623Z,100902.91
2023-03-12T06:54:38.282Z,100902.09
2023-03-12T06:57:04.946Z,100903.88
2023-03-12T06:59:31.630Z,100907.38
2023-03-12T07:01:58.358Z,100909.00
2023-03-12T07:04:25.102Z,100912.66
2023-03-12T07:06:51.735Z,100917.13
2023-03-12T07:09:19.069Z,100911.81
2023-03-12T07:11:45.754Z,100917.28
2023-03-12T07:14:12.509Z,100916.31
2023-03-12T07:16:39.123Z,100922.41
2023-03-12T07:19:05.769Z,100913.81
2023-03-12T07:21:32.355Z,100913.66
2023-03-12T07:23:59.144Z,100916.31
2023-03-12T07:26:25.709Z,100926.06
2023-03-12T07:28:52.317Z,100919.94
2023-03-12T07:31:18.923Z,100924.41
2023-03-12T07:33:45.751Z,100927.88
2023-03-12T07:36:12.566Z,100933.16
2023-03-12T07:38:39.281Z,100925.41
2023-03-12T07:41:06.053Z,100921.94
2023-03-12T07:43:33.124Z,100922.75
2023-03-12T07:45:59.846Z,100926.06
2023-03-12T07:48:26.628Z,100926.72
2023-03-12T07:50:53.276Z,100929.19
2023-03-12T07:53:19.841Z,100931.66
2023-03-12T07:55:47.268Z,100936.94
2023-03-12T07:58:15.995Z,100930.50
2023-03-12T08:00:42.718Z,100929.53
2023-03-12T08:03:09.477Z,100930.34
2023-03-12T08:05:36.524Z,100929.34
2023-03-12T08:08:03.173Z,100928.53
2023-03-12T08:10:29.860Z,100935.63
2023-03-12T08:12:56.535Z,100935.63
2023-03-12T08:15:23.168Z,100935.63
2023-03-12T08:17:49.858Z,100941.09
2023-03-12T08:20:17.525Z,100944.72
2023-03-12T08:22:44.130Z,100943.25
2023-03-12T08:25:10.765Z,100951.81
2023-03-12T08:27:37.369Z,100947.38
2023-03-12T08:30:06.495Z,100951.81
2023-03-12T08:32:33.256Z,100957.97
2023-03-12T08:34:59.983Z,100951.81
2023-03-12T08:37:26.600Z,100950.03
2023-03-12T08:39:53.237Z,100945.88
2023-03-12T08:42:22.370Z,100949.19
2023-03-12T08:44:48.959Z,100954.47
2023-03-12T08:47:15.539Z,100951.03
2023-03-12T08:49:42.170Z,100952.03
2023-03-12T08:52:09.020Z,100958.97
2023-03-12T08:54:35.738Z,100952.81
2023-03-12T08:57:02.398Z,100952.81
2023-03-12T08:59:28.982Z,100944.88
2023-03-12T09:01:56.723Z,100943.25
2023-03-12T09:04:23.386Z,100954.66
2023-03-12T09:06:49.987Z,100945.56
2023-03-12T09:09:16.704Z,100943.56
2023-03-12T09:11:43.340Z,100941.75
2023-03-12T09:16:57.415Z,100939.44
2023-03-12T09:19:24.353Z,100934.97
2023-03-12T09:21:50.945Z,100937.41
2023-03-12T09:24:17.525Z,100939.25
2023-03-12T09:26:44.123Z,100938.25
2023-03-12T09:29:10.839Z,100932.97
2023-03-12T09:31:37.522Z,100932.97
2023-03-12T09:34:05.053Z,100928.69
2023-03-12T09:36:32.091Z,100927.66
2023-03-12T09:38:58.686Z,100925.19
2023-03-12T09:41:30.661Z,100918.91
2023-03-12T09:44:02.507Z,100919.09
2023-03-12T09:46:35.165Z,100922.38
2023-03-12T09:49:06.772Z,100916.09
2023-03-12T09:51:38.283Z,100917.94
2023-03-12T09:54:08.207Z,100908.31
2023-03-12T09:56:35.055Z,100907.66
2023-03-12T09:59:02.018Z,100905.50
2023-03-12T10:01:36.940Z,100901.84
2023-03-12T10:04:26.892Z,100902.69
2023-03-12T10:07:12.029Z,100902.53
2023-03-12T10:09:49.555Z,100904.16
2023-03-12T10:12:41.463Z,100902.53
2023-03-12T10:15:35.498Z,100889.78
2023-03-12T10:18:21.928Z,100897.56
2023-03-12T10:21:00.754Z,100897.88
2023-03-12T10:23:39.369Z,100887.97
2023-03-12T10:26:13.930Z,100884.31
2023-03-12T10:28:52.088Z,100878.00
2023-03-12T10:31:23.604Z,100878.84
2023-03-12T10:33:57.313Z,100880.50
2023-03-12T10:36:44.223Z,100873.22
2023-03-12T10:39:20.150Z,100867.72
2023-03-12T10:41:48.131Z,100873.84
2023-03-12T10:44:22.083Z,100864.91
2023-03-12T10:47:01.657Z,100866.41
2023-03-12T10:49:31.520Z,100861.28
2023-03-12T10:52:16.645Z,100869.25
2023-03-12T10:54:48.124Z,100864.13
2023-03-12T10:57:15.925Z,100862.44
2023-03-12T10:59:45.450Z,100861.63
2023-03-12T11:02:34.030Z,100856.34
2023-03-12T11:05:02.635Z,100860.78
2023-03-12T11:07:33.906Z,100859.16
2023-03-12T11:10:14.494Z,100858.97
2023-03-12T11:12:41.413Z,100856.63
2023-03-12T11:15:23.306Z,100841.41
2023-03-12T11:17:50.022Z,100850.19
2023-03-12T11:20:22.350Z,100844.25
2023-03-12T11:22:51.222Z,100841.59
2023-03-12T11:25:36.120Z,100834.28
2023-03-12T11:28:03.191Z,100829.00
2023-03-12T11:30:35.006Z,100827.53
2023-03-12T11:33:02.255Z,100819.75
2023-03-12T11:35:50.528Z,100821.59
2023-03-12T11:38:17.024Z,100824.41
2023-03-12T11:41:08.639Z,100812.16
2023-03-12T11:43:54.007Z,100802.56
2023-03-12T11:46:32.183Z,100800.91
2023-03-12T11:48:58.749Z,100799.13
2023-03-12T11:51:33.823Z,100798.91
2023-03-12T11:54:26.666Z,100798.91
2023-03-12T11:57:01.098Z,100806.69
2023-03-12T11:59:39.796Z,100801.22
2023-03-12T12:02:12.884Z,100801.88
2023-03-12T12:04:52.698Z,100801.06
2023-03-12T12:07:37.861Z,100792.28
2023-03-12T12:10:30.720Z,100798.56
2023-03-12T12:13:08.720Z,100796.94
2023-03-12T12:16:03.198Z,100792.47
2023-03-12T12:18:59.526Z,100792.66
2023-03-12T12:21:45.655Z,100788.31
2023-03-12T12:24:28.922Z,100787.53
2023-03-12T12:27:27.578Z,100780.59
2023-03-12T12:30:12.878Z,100778.91
2023-03-12T12:33:01.026Z,100773.63
2023-03-12T12:35:34.770Z,100757.94
2023-03-12T12:38:30.287Z,100759.75
2023-03-12T12:41:17.050Z,100751.97
2023-03-12T12:44:11.460Z,100746.69
2023-03-12T12:46:40.336Z,100739.09
2023-03-12T12:49:11.619Z,100754.00
2023-03-12T12:51:42.111Z,100760.94
2023-03-12T12:54:21.695Z,100737.28
2023-03-12T12:56:54.283Z,100744.22
2023-03-12T12:59:35.078Z,100723.88
2023-03-12T13:02:03.994Z,100710.47
2023-03-12T13:04:36.168Z,100716.56
2023-03-12T13:07:13.792Z,100703.16
2023-03-12T13:09:41.842Z,100692.56
2023-03-12T13:12:14.746Z,100697.06
2023-03-12T13:14:45.316Z,100688.94
2023-03-12T13:17:27.258Z,100684.47
2023-03-12T13:20:18.007Z,100686.09
2023-03-12T13:23:23.385Z,100685.09
2023-03-12T13:26:08.172Z,100682.28
2023-03-12T13:29:06.071Z,100677.16
2023-03-12T13:31:37.983Z,100679.63
2023-03-12T13:34:19.955Z,100677.16
2023-03-12T13:37:17.195Z,100672.06
2023-03-12T13:39:44.762Z,100669.44
2023-03-12T13:42:23.288Z,100665.09
2023-03-12T13:44:51.063Z,100653.06
2023-03-12T13:47:30.924Z,100659.19
2023-03-12T13:50:09.246Z,100658.34
2023-03-12T13:52:51.660Z,100656.72
2023-03-12T13:55:25.471Z,100661.38
2023-03-12T13:58:21.442Z,100657.03
2023-03-12T14:00:51.217Z,100657.03
2023-03-12T14:03:28.478Z,100670.28
2023-03-12T14:05:59.096Z,100669.47
2023-03-12T14:08:47.151Z,100664.34
2023-03-12T14:11:16.658Z,100632.59
2023-03-12T14:14:28.441Z,100644.38
2023-03-12T14:17:00.531Z,100648.81
2023-03-12T14:19:33.023Z,100654.94
2023-03-12T14:22:05.941Z,100642.72
2023-03-12T14:24:35.179Z,100648.81
2023-03-12T14:27:03.179Z,100643.53
2023-03-12T14:29:36.201Z,100639.06
2023-03-12T14:32:05.901Z,100630.13
2023-03-12T14:34:39.254Z,100633.44
2023-03-12T14:37:16.440Z,100617.56
2023-03-12T14:39:50.998Z,100612.91
2023-03-12T14:42:32.747Z,100608.44
2023-03-12T14:45:34.735Z,100622.47
2023-03-12T14:48:01.553Z,100613.53
2023-03-12T14:50:30.951Z,100612.72
2023-03-12T14:53:12.123Z,100603.16
2023-03-12T14:55:38.781Z,100608.44
2023-03-12T14:58:25.916Z,100600.69
2023-03-12T15:01:04.434Z,100592.72
2023-03-12T15:03:36.972Z,100604.22
2023-03-12T15:06:03.723Z,100619.44
2023-03-12T15:08:33.287Z,100611.31
2023-03-12T15:10:59.895Z,100607.66
2023-03-12T15:13:27.806Z,100603.22
2023-03-12T15:15:55.306Z,100593.44
2023-03-12T15:18:26.390Z,100574.09
2023-03-12T15:20:53.854Z,100583.69
2023-03-12T15:23:21.959Z,100582.84
2023-03-12T15:25:48.704Z,100584.69
2023-03-12T15:28:15.332Z,100582.84
2023-03-12T15:30:43.079Z,100579.41
2023-03-12T15:33:11.351Z,100575.09
2023-03-12T15:36:03.640Z,100568.97
2023-03-12T15:38:33.024Z,100562.84
2023-03-12T15:41:06.666Z,100549.78
2023-03-12T15:43:33.641Z,100553.28
2023-03-12T15:46:02.789Z,100544.50
2023-03-12T15:48:35.733Z,100552.28
2023-03-12T15:51:02.741Z,100543.53
2023-03-12T15:53:34.176Z,100542.53
2023-03-12T15:56:02.784Z,100545.78
2023-03-12T15:58:36.821Z,100550.13
2023-03-12T16:01:24.253Z,100553.56
2023-03-12T16:03:51.149Z,100542.97
2023-03-12T16:06:25.519Z,100546.47
2023-03-12T16:09:01.375Z,100545.44
2023-03-12T16:11:30.752Z,100537.50
2023-03-12T16:14:24.027Z,100536.69
2023-03-12T16:16:51.416Z,100542.97
2023-03-12T16:19:20.350Z,100532.41
2023-03-12T16:21:47.442Z,100516.69
2023-03-12T16:24:16.697Z,100514.25
2023-03-12T16:26:49.620Z,100515.06
2023-03-12T16:29:17.974Z,100516.91
2023-03-12T16:31:45.045Z,100515.41
2023-03-12T16:34:12.371Z,100514.59
2023-03-12T16:36:39.235Z,100511.94
2023-03-12T16:39:05.991Z,100519.88
2023-03-12T16:41:32.582Z,100498.72
2023-03-12T16:44:00.490Z,100496.09
2023-03-12T16:46:31.549Z,100490.97
2023-03-12T16:48:59.566Z,100511.13
2023-03-12T16:51:28.383Z,100506.00
2023-03-12T16:54:08.429Z,100506.00
2023-03-12T16:56:38.198Z,100503.34
2023-03-12T16:59:07.496Z,100510.50
2023-03-12T17:01:35.034Z,100500.72
2023-03-12T17:04:01.727Z,100500.09
2023-03-12T17:06:28.374Z,100507.84
2023-03-12T17:08:55.369Z,100507.00
2023-03-12T17:11:27.080Z,100513.59
2023-03-12T17:13:56.447Z,100518.72
2023-03-12T17:16:23.875Z,100517.69
2023-03-12T17:18:50.795Z,100521.00
2023-03-12T17:21:18.417Z,100521.81
2023-03-12T17:23:46.922Z,100524.28
2023-03-12T17:26:13.695Z,100531.38
2023-03-12T17:28:40.334Z,100534.88
2023-03-12T17:31:07.300Z,100530.41
2023-03-12T17:33:33.986Z,100529.56
2023-03-12T17:36:05.569Z,100519.00
2023-03-12T17:38:32.976Z,100526.94
2023-03-12T17:41:01.667Z,100531.59
2023-03-12T17:43:28.708Z,100529.13
2023-03-12T17:45:55.602Z,100525.47
2023-03-12T17:48:23.438Z,100518.53
2023-03-12T17:50:50.457Z,100523.00
2023-03-12T17:53:17.229Z,100508.13
2023-03-12T17:55:43.863Z,100508.31
2023-03-12T17:58:10.464Z,100511.94
2023-03-12T18:00:37.109Z,100510.94
2023-03-12T18:03:06.837Z,100502.56
2023-03-12T18:05:33.704Z,100502.38
2023-03-12T18:08:00.361Z,100498.91
2023-03-12T18:10:27.024Z,100498.91
2023-03-12T18:12:53.618Z,100487.47
2023-03-12T18:15:20.296Z,100492.78
2023-03-12T18:17:49.940Z,100491.97
2023-03-12T18:20:25.873Z,100490.13
2023-03-12T18:22:59.067Z,100485.03
2023-03-12T18:25:25.658Z,100483.03
2023-03-12T18:27:53.398Z,100479.53
2023-03-12T18:30:21.137Z,100479.19
2023-03-12T18:32:48.004Z,100476.56
2023-03-12T18:35:14.636Z,100477.22
2023-03-12T18:37:41.746Z,100473.56
2023-03-12T18:40:10.060Z,100461.13
2023-03-12T18:42:36.724Z,100461.97
2023-03-12T18:45:03.558Z,100467.25
2023-03-12T18:47:31.356Z,100461.97
2023-03-12T18:49:58.000Z,100475.00
2023-03-12T18:52:24.625Z,100463.59
2023-03-12T18:54:51.264Z,100460.16
2023-03-12T18:57:17.864Z,100457.50
2023-03-12T18:59:46.046Z,100461.13
2023-03-12T19:02:12.883Z,100454.19
2023-03-12T19:04:39.746Z,100453.41
2023-03-12T19:07:07.404Z,100451.72
2023-03-12T19:09:34.214Z,100450.75
2023-03-12T19:12:00.844Z,100448.09
2023-03-12T19:14:27.768Z,100440.53
2023-03-12T19:16:54.398Z,100434.03
2023-03-12T19:19:21.804Z,100442.81
2023-03-12T19:21:48.906Z,100440.16
2023-03-12T19:24:15.503Z,100436.69
2023-03-12T19:26:42.286Z,100429.75
2023-03-12T19:29:09.076Z,100415.69
2023-03-12T19:31:35.728Z,100419.19
2023-03-12T19:34:02.390Z,100419.00
2023-03-12T19:36:28.986Z,100411.25
2023-03-12T19:38:55.558Z,100405.94
2023-03-12T19:41:22.273Z,100409.56
2023-03-12T19:43:48.937Z,100399.00
2023-03-12T19:46:15.670Z,100404.94
2023-03-12T19:48:42.359Z,100405.78
2023-03-12T19:51:10.434Z,100402.91
2023-03-12T19:53:37.104Z,100413.50
2023-03-12T19:56:04.441Z,100410.69
2023-03-12T19:58:31.040Z,100407.03
2023-03-12T20:01:01.204Z,100397.44
2023-03-12T20:03:28.716Z,100402.56
2023-03-12T20:05:55.561Z,100394.63
2023-03-12T20:08:22.606Z,100383.88
2023-03-12T20:10:49.730Z,100377.75
2023-03-12T20:13:17.787Z,100386.69
2023-03-12T20:15:48.522Z,100387.53
2023-03-12T20:18:15.911Z,100376.28
2023-03-12T20:20:42.970Z,100375.28
2023-03-12T20:23:09.703Z,100391.16
2023-03-12T20:25:39.878Z,100395.63
2023-03-12T20:28:07.253Z,100370.38
2023-03-12T20:30:35.986Z,100403.75
2023-03-12T20:33:02.741Z,100397.63
2023-03-12T20:35:29.351Z,100382.59
2023-03-12T20:37:55.944Z,100395.19
2023-03-12T20:40:22.555Z,100378.66
2023-03-12T20:42:49.150Z,100383.78
2023-03-12T20:45:15.745Z,100377.66
2023-03-12T20:47:42.333Z,100363.63
2023-03-12T20:50:09.796Z,100393.53
2023-03-12T20:52:36.479Z,100390.06
2023-03-12T20:55:03.602Z,100389.25
2023-03-12T20:57:30.190Z,100381.31
2023-03-12T20:59:56.762Z,100376.00
2023-03-12T21:02:23.484Z,100375.19
2023-03-12T21:04:52.582Z,100381.13
2023-03-12T21:07:19.203Z,100376.66
2023-03-12T21:09:45.792Z,100373.00
2023-03-12T21:12:12.956Z,100372.84
2023-03-12T21:14:40.832Z,100378.75
2023-03-12T21:17:09.848Z,100383.03
2023-03-12T21:19:36.605Z,100384.50
2023-03-12T21:22:03.165Z,100394.91
2023-03-12T21:24:32.734Z,100392.44
2023-03-12T21:26:59.315Z,100390.63
2023-03-12T21:29:25.895Z,100394.09
2023-03-12T21:31:53.814Z,100396.75
2023-03-12T21:34:23.449Z,100393.09
2023-03-12T21:36:50.074Z,100393.25
2023-03-12T21:39:17.485Z,100386.34
2023-03-12T21:41:44.072Z,100392.44
2023-03-12T21:44:10.670Z,100385.50
2023-03-12T21:46:37.275Z,100378.56
2023-03-12T21:49:03.958Z,100384.69
2023-03-12T21:51:30.587Z,100386.50
2023-03-12T21:53:58.030Z,100383.03
2023-03-12T21:56:29.445Z,100370.81
2023-03-12T21:58:57.344Z,100357.75
2023-03-12T22:01:24.494Z,100360.41
2023-03-12T22:03:51.308Z,100351.66
2023-03-12T22:06:17.946Z,100355.28
2023-03-12T22:08:46.960Z,100349.03
2023-03-12T22:11:14.279Z,100364.06
2023-03-12T22:13:40.952Z,100361.78
2023-03-12T22:16:09.014Z,100351.19
2023-03-12T22:18:53.486Z,100352.84
2023-03-12T22:21:22.183Z,100360.97
2023-03-12T22:23:53.851Z,100364.25
2023-03-12T22:26:22.333Z,100373.81
2023-03-12T22:28:51.003Z,100376.28
2023-03-12T22:31:19.240Z,100377.13
2023-03-12T22:33:46.271Z,100371.66
2023-03-12T22:36:15.245Z,100377.75
2023-03-12T22:38:42.322Z,100363.53
2023-03-12T22:41:25.760Z,100363.31
2023-03-12T22:43:54.636Z,100364.97
2023-03-12T22:46:22.835Z,100360.50
2023-03-12T22:48:56.951Z,100366.78
2023-03-12T22:51:24.281Z,100361.50
2023-03-12T22:53:51.039Z,100366.78
2023-03-12T22:56:18.167Z,100365.97
2023-03-12T22:58:45.095Z,100377.38
2023-03-12T23:01:13.843Z,100372.28
2023-03-12T23:03:41.785Z,100366.97
2023-03-12T23:06:30.049Z,100367.81
2023-03-12T23:08:57.280Z,100359.03
2023-03-12T23:11:28.135Z,100357.41
2023-03-12T23:13:54.834Z,100365.16
2023-03-12T23:16:23.707Z,100369.63
2023-03-12T23:18:50.589Z,100367.16
2023-03-12T23:21:19.721Z,100362.69
2023-03-12T23:23:47.154Z,100358.22
2023-03-12T23:26:16.627Z,100361.69
2023-03-12T23:28:43.629Z,100345.19
2023-03-12T23:31:10.829Z,100356.38
2023-03-12T23:33:37.812Z,100348.63
2023-03-12T23:36:05.881Z,100347.81
2023-03-12T23:38:32.985Z,100350.47
2023-03-12T23:41:19.239Z,100342.72
2023-03-12T23:43:46.022Z,100347.81
2023-03-12T23:46:14.192Z,100344.34
2023-03-12T23:48:41.135Z,100358.22
2023-03-12T23:51:12.237Z,100347.66
2023-03-12T23:53:39.938Z,100350.09
2023-03-12T23:56:08.962Z,100350.91
2023-03-12T23:58:36.125Z,100346.47
